createdAt,value
2023-04-25T00:00:50.271Z,13.42
2023-04-25T00:03:41.196Z,13.40
2023-04-25T00:07:08.796Z,13.44
2023-04-25T00:10:36.824Z,13.43
2023-04-25T00:13:45.972Z,13.39
2023-04-25T00:17:14.183Z,13.37
2023-04-25T00:20:42.071Z,13.34
2023-04-25T00:24:10.203Z,13.33
2023-04-25T00:27:38.167Z,13.27
2023-04-25T00:31:05.954Z,13.19
2023-04-25T00:34:14.475Z,13.12
2023-04-25T00:37:42.344Z,13.08
2023-04-25T00:41:10.570Z,13.08
2023-04-25T00:44:38.587Z,13.04
2023-04-25T00:48:06.526Z,13.01
2023-04-25T00:51:15.601Z,12.94
2023-04-25T00:54:43.509Z,12.86
2023-04-25T00:58:11.524Z,12.77
2023-04-25T01:01:39.432Z,12.67
2023-04-25T01:05:07.517Z,12.72
2023-04-25T01:08:17.857Z,12.73
2023-04-25T01:11:08.085Z,12.71
2023-04-25T01:14:36.153Z,12.71
2023-04-25T01:18:04.236Z,12.74
2023-04-25T01:21:14.060Z,12.74
2023-04-25T01:24:41.961Z,12.70
2023-04-25T01:28:09.692Z,12.67
2023-04-25T01:31:37.653Z,12.65
2023-04-25T01:35:05.691Z,12.64
2023-04-25T01:38:33.711Z,12.63
2023-04-25T01:42:01.581Z,12.62
2023-04-25T01:45:10.476Z,12.60
2023-04-25T01:48:38.371Z,12.58
2023-04-25T01:52:06.068Z,12.59
2023-04-25T01:55:34.129Z,12.62
2023-04-25T01:58:43.889Z,12.65
2023-04-25T02:01:52.873Z,12.66
2023-04-25T02:05:20.906Z,12.65
2023-04-25T02:08:48.578Z,12.69
2023-04-25T02:12:16.505Z,12.70
2023-04-25T02:15:44.108Z,12.70
2023-04-25T02:18:54.607Z,12.72
2023-04-25T02:22:22.518Z,12.76
2023-04-25T02:25:11.831Z,12.80
2023-04-25T02:28:39.506Z,12.84
2023-04-25T02:32:07.508Z,12.83
2023-04-25T02:35:35.457Z,12.84
2023-04-25T02:39:03.497Z,12.72
2023-04-25T02:42:31.533Z,12.72
2023-04-25T02:45:59.376Z,12.65
2023-04-25T02:49:09.459Z,12.59
2023-04-25T02:52:37.534Z,12.66
2023-04-25T02:56:05.683Z,12.74
2023-04-25T02:59:33.767Z,12.79
2023-04-25T03:03:01.939Z,12.82
2023-04-25T03:06:29.756Z,12.89
2023-04-25T03:09:57.477Z,12.89
2023-04-25T03:13:06.410Z,12.89
2023-04-25T03:16:34.373Z,12.85
2023-04-25T03:20:02.505Z,12.82
2023-04-25T03:23:30.405Z,12.87
2023-04-25T03:26:58.810Z,12.93
2023-04-25T03:30:26.753Z,12.94
2023-04-25T03:33:54.859Z,12.98
2023-04-25T03:37:23.271Z,12.90
2023-04-25T03:40:51.332Z,12.91
2023-04-25T03:44:19.334Z,12.84
2023-04-25T03:47:28.477Z,12.65
2023-04-25T03:50:37.493Z,12.56
2023-04-25T03:54:05.513Z,12.50
2023-04-25T03:57:36.489Z,12.40
2023-04-25T04:00:45.403Z,12.33
2023-04-25T04:04:13.811Z,12.37
2023-04-25T04:07:41.278Z,12.40
2023-04-25T04:11:09.061Z,12.47
2023-04-25T04:14:37.049Z,12.49
2023-04-25T04:17:26.370Z,12.55
2023-04-25T04:20:54.285Z,12.62
2023-04-25T04:24:01.102Z,12.60
2023-04-25T04:26:53.916Z,12.55
2023-04-25T04:30:34.291Z,12.47
2023-04-25T04:34:05.927Z,12.44
2023-04-25T04:37:34.404Z,12.40
2023-04-25T04:41:02.303Z,12.37
2023-04-25T04:44:14.794Z,12.31
2023-04-25T04:47:42.878Z,12.26
2023-04-25T04:51:17.554Z,12.22
2023-04-25T04:54:46.874Z,12.20
2023-04-25T04:58:27.633Z,12.20
2023-04-25T05:02:01.728Z,12.19
2023-04-25T05:05:25.637Z,12.20
2023-04-25T05:08:53.489Z,12.15
2023-04-25T05:12:21.593Z,12.15
2023-04-25T05:15:49.544Z,12.17
2023-04-25T05:19:17.835Z,12.20
2023-04-25T05:22:57.953Z,12.18
2023-04-25T05:26:32.036Z,12.22
2023-04-25T05:29:58.659Z,12.20
2023-04-25T05:33:26.632Z,12.23
2023-04-25T05:36:54.692Z,12.18
2023-04-25T05:40:22.751Z,12.21
2023-04-25T05:43:51.323Z,12.23
2023-04-25T05:47:27.834Z,12.21
2023-04-25T05:50:57.242Z,12.23
2023-04-25T05:54:40.338Z,12.20
2023-04-25T05:57:51.391Z,12.13
2023-04-25T06:01:17.493Z,12.14
2023-04-25T06:04:07.169Z,11.95
2023-04-25T06:07:31.628Z,11.83
2023-04-25T06:10:59.578Z,11.72
2023-04-25T06:14:29.572Z,11.60
2023-04-25T06:17:55.469Z,11.54
2023-04-25T06:21:23.672Z,11.46
2023-04-25T06:24:51.769Z,11.43
2023-04-25T06:28:19.518Z,11.40
2023-04-25T06:31:47.422Z,11.34
2023-04-25T06:35:15.693Z,11.21
2023-04-25T06:38:43.793Z,11.08
2023-04-25T06:42:11.792Z,10.98
2023-04-25T06:45:39.695Z,10.86
2023-04-25T06:49:07.640Z,10.78
2023-04-25T06:52:35.442Z,10.72
2023-04-25T06:56:03.276Z,10.66
2023-04-25T06:59:12.242Z,10.53
2023-04-25T07:02:01.053Z,10.45
2023-04-25T07:05:29.028Z,10.44
2023-04-25T07:08:56.932Z,10.35
2023-04-25T07:12:24.822Z,10.23
2023-04-25T07:15:15.052Z,10.22
2023-04-25T07:18:39.373Z,10.16
2023-04-25T07:21:48.033Z,10.14
2023-04-25T07:24:59.610Z,10.11
2023-04-25T07:28:27.549Z,10.10
2023-04-25T07:31:55.615Z,10.06
2023-04-25T07:35:23.257Z,10.08
2023-04-25T07:38:51.273Z,10.06
2023-04-25T07:41:59.407Z,10.05
2023-04-25T07:45:27.317Z,10.04
2023-04-25T07:48:55.168Z,10.04
2023-04-25T07:52:11.209Z,10.03
2023-04-25T07:55:20.800Z,10.02
2023-04-25T07:58:28.032Z,9.98
2023-04-25T08:01:36.244Z,9.88
2023-04-25T08:04:07.008Z,9.79
2023-04-25T08:07:34.813Z,9.79
2023-04-25T08:11:02.658Z,9.77
2023-04-25T08:13:52.560Z,9.70
2023-04-25T08:17:17.353Z,9.62
2023-04-25T08:20:45.131Z,9.56
2023-04-25T08:23:53.240Z,9.58
2023-04-25T08:27:01.365Z,9.53
2023-04-25T08:30:13.166Z,9.55
2023-04-25T08:33:24.937Z,9.53
2023-04-25T08:36:39.856Z,9.54
2023-04-25T08:39:54.994Z,9.55
2023-04-25T08:42:47.351Z,9.48
2023-04-25T08:46:15.250Z,9.42
2023-04-25T08:49:21.722Z,9.41
2023-04-25T08:52:12.462Z,9.41
2023-04-25T08:55:40.543Z,9.39
2023-04-25T08:58:47.125Z,9.40
2023-04-25T09:02:15.130Z,9.39
2023-04-25T09:05:03.947Z,9.39
2023-04-25T09:08:14.283Z,9.39
2023-04-25T09:11:41.134Z,9.41
2023-04-25T09:15:09.029Z,9.44
2023-04-25T09:18:37.088Z,9.52
2023-04-25T09:22:04.973Z,9.62
2023-04-25T09:25:13.768Z,9.72
2023-04-25T09:28:41.651Z,9.79
2023-04-25T09:31:31.223Z,9.84
2023-04-25T09:34:59.270Z,9.88
2023-04-25T09:38:26.927Z,9.92
2023-04-25T09:41:57.809Z,9.99
2023-04-25T09:45:06.891Z,10.07
2023-04-25T09:48:15.557Z,10.09
2023-04-25T09:51:24.183Z,10.19
2023-04-25T09:54:33.166Z,10.34
2023-04-25T09:57:46.142Z,10.41
2023-04-25T10:01:14.718Z,10.45
2023-04-25T10:04:42.603Z,10.57
2023-04-25T10:08:10.486Z,10.54
2023-04-25T10:11:38.116Z,10.49
2023-04-25T10:15:06.224Z,10.47
2023-04-25T10:18:33.990Z,10.45
2023-04-25T10:22:02.138Z,10.53
2023-04-25T10:25:30.229Z,10.57
2023-04-25T10:28:58.117Z,10.57
2023-04-25T10:32:27.497Z,10.62
2023-04-25T10:35:55.036Z,10.65
2023-04-25T10:39:22.924Z,10.63
2023-04-25T10:42:11.446Z,10.59
2023-04-25T10:45:39.483Z,10.57
2023-04-25T10:48:48.531Z,10.54
2023-04-25T10:51:57.681Z,10.52
2023-04-25T10:55:25.766Z,10.49
2023-04-25T11:01:06.362Z,10.45
2023-04-25T11:04:34.391Z,10.44
2023-04-25T11:07:23.751Z,10.49
2023-04-25T11:10:52.255Z,10.53
2023-04-25T11:14:00.913Z,10.57
2023-04-25T11:17:29.148Z,10.60
2023-04-25T11:20:57.274Z,10.61
2023-04-25T11:24:25.255Z,10.67
2023-04-25T11:27:14.641Z,10.70
2023-04-25T11:30:23.340Z,10.75
2023-04-25T11:33:51.534Z,10.80
2023-04-25T11:37:19.234Z,10.86
2023-04-25T11:40:27.582Z,10.92
2023-04-25T11:43:55.598Z,10.96
2023-04-25T11:46:44.777Z,11.00
2023-04-25T11:50:12.687Z,10.96
2023-04-25T11:53:40.590Z,10.87
2023-04-25T11:56:52.842Z,10.84
2023-04-25T12:00:01.997Z,10.86
2023-04-25T12:03:30.017Z,10.90
2023-04-25T12:06:20.694Z,10.98
2023-04-25T12:09:48.360Z,11.08
2023-04-25T12:13:16.058Z,11.14
2023-04-25T12:16:23.904Z,11.21
2023-04-25T12:19:51.688Z,11.26
2023-04-25T12:23:19.625Z,11.38
2023-04-25T12:26:08.758Z,11.46
2023-04-25T12:29:48.581Z,11.54
2023-04-25T12:33:04.530Z,11.55
2023-04-25T12:36:32.482Z,11.57
2023-04-25T12:40:00.241Z,11.57
2023-04-25T12:43:08.568Z,11.55
2023-04-25T12:46:16.976Z,11.50
2023-04-25T12:49:25.859Z,11.47
2023-04-25T12:52:53.820Z,11.47
2023-04-25T12:56:23.620Z,11.49
2023-04-25T12:59:30.641Z,11.51
2023-04-25T13:02:58.548Z,11.56
2023-04-25T13:05:47.474Z,11.61
2023-04-25T13:09:15.264Z,11.65
2023-04-25T13:12:43.309Z,11.69
2023-04-25T13:16:11.096Z,11.74
2023-04-25T13:19:38.958Z,11.81
2023-04-25T13:22:46.689Z,11.87
2023-04-25T13:26:14.732Z,11.88
2023-04-25T13:29:42.711Z,11.87
2023-04-25T13:32:50.593Z,11.91
2023-04-25T13:36:18.302Z,11.97
2023-04-25T13:39:27.323Z,12.06
2023-04-25T13:42:55.446Z,12.15
2023-04-25T13:46:03.368Z,12.30
2023-04-25T13:49:31.256Z,12.52
2023-04-25T13:52:59.080Z,12.73
2023-04-25T13:56:08.905Z,12.87
2023-04-25T13:59:36.777Z,13.02
2023-04-25T14:03:04.768Z,13.10
2023-04-25T14:05:52.577Z,13.16
2023-04-25T14:09:20.773Z,13.16
2023-04-25T14:12:48.668Z,13.13
2023-04-25T14:15:36.969Z,13.11
2023-04-25T14:19:04.837Z,13.05
2023-04-25T14:22:32.741Z,12.99
2023-04-25T14:25:02.597Z,12.97
2023-04-25T14:28:30.486Z,12.90
2023-04-25T14:31:47.484Z,12.93
2023-04-25T14:34:35.632Z,13.02
2023-04-25T14:37:43.694Z,13.12
2023-04-25T14:41:11.678Z,13.28
2023-04-25T14:44:39.533Z,13.88
2023-04-25T14:48:08.151Z,14.97
2023-04-25T14:51:36.062Z,15.12
2023-04-25T14:54:47.668Z,15.03
2023-04-25T14:58:15.630Z,14.83
2023-04-25T15:01:06.547Z,14.81
2023-04-25T15:03:35.519Z,14.84
2023-04-25T15:06:26.558Z,14.92
2023-04-25T15:08:57.323Z,14.95
2023-04-25T15:11:27.882Z,14.92
2023-04-25T15:14:20.168Z,14.91
2023-04-25T15:17:29.124Z,14.75
2023-04-25T15:19:57.882Z,14.64
2023-04-25T15:22:46.017Z,14.56
2023-04-25T15:26:09.830Z,14.35
2023-04-25T15:28:57.851Z,14.27
2023-04-25T15:31:30.140Z,14.10
2023-04-25T15:33:59.228Z,14.08
2023-04-25T15:36:47.277Z,14.04
2023-04-25T15:39:55.181Z,14.11
2023-04-25T15:42:23.647Z,14.24
2023-04-25T15:45:51.545Z,14.49
2023-04-25T15:48:41.652Z,15.30
2023-04-25T15:51:12.188Z,16.52
2023-04-25T15:53:41.623Z,17.57
2023-04-25T15:56:30.739Z,18.55
2023-04-25T15:59:00.056Z,19.00
2023-04-25T16:02:17.094Z,18.44
2023-04-25T16:04:46.849Z,17.71
2023-04-25T16:07:16.226Z,17.31
2023-04-25T16:10:05.729Z,16.80
2023-04-25T16:13:13.634Z,17.03
2023-04-25T16:15:41.830Z,17.02
2023-04-25T16:18:50.121Z,17.40
2023-04-25T16:22:18.206Z,17.79
2023-04-25T16:25:26.598Z,18.50
2023-04-25T16:28:54.559Z,18.11
2023-04-25T16:31:24.176Z,17.78
2023-04-25T16:34:51.770Z,17.16
2023-04-25T16:37:20.125Z,16.67
2023-04-25T16:39:48.350Z,16.28
2023-04-25T16:42:56.169Z,15.74
2023-04-25T16:46:04.087Z,15.40
2023-04-25T16:49:12.339Z,14.93
2023-04-25T16:52:40.541Z,14.61
2023-04-25T16:55:29.127Z,14.38
2023-04-25T16:57:58.141Z,14.21
2023-04-25T17:01:05.895Z,14.00
2023-04-25T17:03:56.727Z,13.77
2023-04-25T17:06:46.101Z,13.60
2023-04-25T17:09:34.395Z,13.46
2023-04-25T17:12:42.801Z,13.42
2023-04-25T17:16:10.560Z,13.29
2023-04-25T17:19:39.572Z,13.26
2023-04-25T17:22:27.550Z,13.14
2023-04-25T17:25:35.501Z,12.96
2023-04-25T17:28:43.211Z,12.80
2023-04-25T17:31:51.044Z,12.69
2023-04-25T17:34:58.861Z,12.49
2023-04-25T17:38:06.605Z,12.36
2023-04-25T17:40:54.650Z,12.20
2023-04-25T17:44:23.397Z,12.13
2023-04-25T17:47:27.349Z,12.00
2023-04-25T17:50:36.518Z,11.90
2023-04-25T17:54:06.836Z,11.78
2023-04-25T17:57:34.865Z,11.66
2023-04-25T18:01:02.625Z,11.60
2023-04-25T18:04:30.359Z,11.49
2023-04-25T18:07:53.716Z,11.34
2023-04-25T18:11:21.747Z,11.25
2023-04-25T18:14:10.176Z,11.14
2023-04-25T18:16:59.109Z,11.07
2023-04-25T18:19:28.518Z,11.03
2023-04-25T18:22:16.184Z,10.98
2023-04-25T18:25:24.353Z,10.94
2023-04-25T18:28:20.004Z,10.91
2023-04-25T18:31:09.157Z,10.87
2023-04-25T18:33:57.732Z,10.84
2023-04-25T18:37:25.502Z,10.78
2023-04-25T18:40:35.135Z,10.69
2023-04-25T18:43:42.079Z,10.64
2023-04-25T18:47:09.698Z,10.57
2023-04-25T18:50:38.584Z,10.50
2023-04-25T18:54:05.380Z,10.44
2023-04-25T18:57:33.081Z,10.35
2023-04-25T19:00:40.890Z,10.27
2023-04-25T19:03:50.749Z,10.19
2023-04-25T19:06:19.526Z,10.12
2023-04-25T19:09:10.494Z,10.06
2023-04-25T19:12:38.393Z,10.00
2023-04-25T19:15:26.124Z,9.95
2023-04-25T19:18:34.158Z,9.91
2023-04-25T19:21:42.453Z,9.85
2023-04-25T19:25:11.164Z,9.80
2023-04-25T19:28:38.338Z,9.78
2023-04-25T19:31:46.268Z,9.73
2023-04-25T19:35:14.083Z,9.68
2023-04-25T19:38:22.296Z,9.65
2023-04-25T19:41:50.104Z,9.60
2023-04-25T19:45:17.866Z,9.57
2023-04-25T19:48:25.944Z,9.55
2023-04-25T19:51:34.648Z,9.53
2023-04-25T19:54:42.904Z,9.50
2023-04-25T19:58:10.535Z,9.45
2023-04-25T20:01:18.779Z,9.51
2023-04-25T20:04:06.720Z,9.53
2023-04-25T20:06:44.812Z,9.50
2023-04-25T20:10:12.587Z,9.41
2023-04-25T20:13:40.180Z,9.35
2023-04-25T20:17:08.044Z,9.36
2023-04-25T20:20:36.021Z,9.41
2023-04-25T20:23:45.077Z,9.38
2023-04-25T20:27:12.650Z,9.33
2023-04-25T20:30:40.187Z,9.25
2023-04-25T20:34:07.945Z,9.21
2023-04-25T20:36:56.432Z,9.17
2023-04-25T20:40:24.065Z,9.14
2023-04-25T20:43:51.848Z,9.05
2023-04-25T20:47:19.507Z,8.98
2023-04-25T20:50:32.734Z,8.94
2023-04-25T20:53:40.840Z,8.91
2023-04-25T20:57:08.523Z,8.84
2023-04-25T21:00:36.937Z,8.81
2023-04-25T21:03:45.902Z,8.80
2023-04-25T21:07:13.323Z,8.77
2023-04-25T21:10:41.080Z,8.78
2023-04-25T21:14:08.749Z,8.72
2023-04-25T21:17:17.058Z,8.69
2023-04-25T21:20:32.307Z,8.61
2023-04-25T21:23:21.314Z,8.59
2023-04-25T21:26:29.264Z,8.57
2023-04-25T21:29:57.023Z,8.54
2023-04-25T21:33:05.944Z,8.49
2023-04-25T21:36:15.462Z,8.45
2023-04-25T21:39:43.198Z,8.42
2023-04-25T21:43:09.178Z,8.40
2023-04-25T21:46:23.560Z,8.38
2023-04-25T21:49:48.072Z,8.35
2023-04-25T21:53:15.579Z,8.33
2023-04-25T21:56:43.456Z,8.32
2023-04-25T22:00:11.142Z,8.29
2023-04-25T22:03:38.867Z,8.26
2023-04-25T22:06:46.829Z,8.22
2023-04-25T22:09:17.447Z,8.18
2023-04-25T22:12:45.258Z,8.12
2023-04-25T22:16:12.803Z,8.07
2023-04-25T22:19:40.525Z,8.06
2023-04-25T22:23:08.317Z,8.05
2023-04-25T22:26:35.988Z,8.05
2023-04-25T22:30:03.629Z,8.03
2023-04-25T22:33:31.304Z,7.98
2023-04-25T22:36:59.078Z,7.95
2023-04-25T22:40:26.683Z,7.94
2023-04-25T22:43:54.069Z,7.92
2023-04-25T22:47:22.306Z,7.96
2023-04-25T22:50:50.330Z,8.06
2023-04-25T22:54:18.283Z,8.11
2023-04-25T22:57:45.853Z,8.14
2023-04-25T23:01:13.672Z,8.16
2023-04-25T23:04:41.110Z,8.20
2023-04-25T23:08:08.817Z,8.20
2023-04-25T23:11:36.960Z,8.20
2023-04-25T23:14:45.593Z,8.26
2023-04-25T23:18:13.026Z,8.28
2023-04-25T23:21:40.740Z,8.29
2023-04-25T23:24:49.602Z,8.34
2023-04-25T23:28:17.356Z,8.35
2023-04-25T23:31:45.220Z,8.37
2023-04-25T23:35:12.927Z,8.38
2023-04-25T23:38:02.295Z,8.39
2023-04-25T23:41:29.994Z,8.42
2023-04-25T23:44:57.721Z,8.45
2023-04-25T23:48:25.447Z,8.49
2023-04-25T23:51:53.442Z,8.52
2023-04-25T23:55:01.932Z,8.53
2023-04-25T23:58:29.503Z,8.51
